createdAt,value
2019-05-11T00:00:47.599Z,85.96
2019-05-11T00:02:58.470Z,86.03
2019-05-11T00:05:09.410Z,86.18
2019-05-11T00:07:20.294Z,86.22
2019-05-11T00:09:31.270Z,86.35
2019-05-11T00:11:42.219Z,86.30
2019-05-11T00:13:53.091Z,86.14
2019-05-11T00:16:03.924Z,85.98
2019-05-11T00:18:14.925Z,85.84
2019-05-11T00:20:25.747Z,85.87
2019-05-11T00:22:36.605Z,85.96
2019-05-11T00:24:49.509Z,85.61
2019-05-11T00:27:00.423Z,84.92
2019-05-11T00:29:11.261Z,85.07
2019-05-11T00:31:22.125Z,85.45
2019-05-11T00:33:32.955Z,85.45
2019-05-11T00:35:43.817Z,85.96
2019-05-11T00:37:54.652Z,86.09
2019-05-11T00:40:14.012Z,86.13
2019-05-11T00:42:18.472Z,85.71
2019-05-11T00:44:29.368Z,84.62
2019-05-11T00:46:40.200Z,84.58
2019-05-11T00:48:51.036Z,84.14
2019-05-11T00:51:02.092Z,84.54
2019-05-11T00:53:13.103Z,84.72
2019-05-11T00:55:24.073Z,84.43
2019-05-11T00:57:34.916Z,84.69
2019-05-11T00:59:45.850Z,84.86
2019-05-11T01:01:56.722Z,84.96
2019-05-11T01:04:07.573Z,84.94
2019-05-11T01:06:18.441Z,84.90
2019-05-11T01:08:29.271Z,84.92
2019-05-11T01:10:42.554Z,84.92
2019-05-11T01:12:52.863Z,84.41
2019-05-11T01:15:04.296Z,84.20
2019-05-11T01:17:15.168Z,84.10
2019-05-11T01:19:26.112Z,83.96
2019-05-11T01:21:36.972Z,84.29
2019-05-11T01:23:47.813Z,84.48
2019-05-11T01:25:58.680Z,84.93
2019-05-11T01:28:09.537Z,84.98
2019-05-11T01:30:20.384Z,84.91
2019-05-11T01:32:31.239Z,84.86
2019-05-11T01:34:42.099Z,84.75
2019-05-11T01:36:52.980Z,84.76
2019-05-11T01:39:05.232Z,84.78
2019-05-11T01:41:16.294Z,84.52
2019-05-11T01:43:27.267Z,84.62
2019-05-11T01:45:38.109Z,85.01
2019-05-11T01:47:48.994Z,85.49
2019-05-11T01:49:59.924Z,85.64
2019-05-11T01:52:10.792Z,85.44
2019-05-11T01:54:21.751Z,85.01
2019-05-11T01:56:32.596Z,84.55
2019-05-11T01:58:43.438Z,83.51
2019-05-11T02:00:54.298Z,83.54
2019-05-11T02:03:05.265Z,83.69
2019-05-11T02:05:28.679Z,83.66
2019-05-11T02:07:39.709Z,83.89
2019-05-11T02:09:50.693Z,84.45
2019-05-11T02:12:01.638Z,84.57
2019-05-11T02:14:12.484Z,84.61
2019-05-11T02:16:23.340Z,84.90
2019-05-11T02:18:34.215Z,85.62
2019-05-11T02:20:45.177Z,85.57
2019-05-11T02:22:56.149Z,85.05
2019-05-11T02:25:07.979Z,84.94
2019-05-11T02:27:18.950Z,84.83
2019-05-11T02:29:29.921Z,84.53
2019-05-11T02:31:40.899Z,84.55
2019-05-11T02:33:51.746Z,84.70
2019-05-11T02:36:02.703Z,84.52
2019-05-11T02:38:13.554Z,83.94
2019-05-11T02:40:24.708Z,83.72
2019-05-11T02:42:35.812Z,83.63
2019-05-11T02:44:46.666Z,84.06
2019-05-11T02:46:57.625Z,84.23
2019-05-11T02:49:08.476Z,84.15
2019-05-11T02:51:19.619Z,84.28
2019-05-11T02:53:34.091Z,84.43
2019-05-11T02:55:45.763Z,84.37
2019-05-11T02:57:56.601Z,84.69
2019-05-11T03:00:08.656Z,85.45
2019-05-11T03:02:19.487Z,85.28
2019-05-11T03:04:30.384Z,85.68
2019-05-11T03:06:41.217Z,85.80
2019-05-11T03:08:52.211Z,86.09
2019-05-11T03:11:03.026Z,86.07
2019-05-11T03:13:13.979Z,86.14
2019-05-11T03:15:24.841Z,85.93
2019-05-11T03:17:35.658Z,86.16
2019-05-11T03:19:46.611Z,86.05
2019-05-11T03:21:57.465Z,85.72
2019-05-11T03:24:08.386Z,85.66
2019-05-11T03:26:19.255Z,85.20
2019-05-11T03:28:30.079Z,85.30
2019-05-11T03:30:41.105Z,84.78
2019-05-11T03:32:51.997Z,84.52
2019-05-11T03:35:03.645Z,84.19
2019-05-11T03:37:14.500Z,84.33
2019-05-11T03:39:25.335Z,84.52
2019-05-11T03:41:36.185Z,84.05
2019-05-11T03:43:47.019Z,83.88
2019-05-11T03:45:57.872Z,83.92
2019-05-11T03:48:08.710Z,83.70
2019-05-11T03:50:19.665Z,83.75
2019-05-11T03:52:30.522Z,82.86
2019-05-11T03:54:41.370Z,83.04
2019-05-11T03:56:52.216Z,83.05
2019-05-11T03:59:03.073Z,83.07
2019-05-11T04:01:13.963Z,82.96
2019-05-11T04:03:24.794Z,82.81
2019-05-11T04:05:35.631Z,83.26
2019-05-11T04:07:46.497Z,83.21
2019-05-11T04:09:57.440Z,83.31
2019-05-11T04:12:08.311Z,83.03
2019-05-11T04:14:19.161Z,82.61
2019-05-11T04:16:30.034Z,82.99
2019-05-11T04:18:40.862Z,82.87
2019-05-11T04:20:51.726Z,82.73
2019-05-11T04:23:02.603Z,82.51
2019-05-11T04:25:13.562Z,82.86
2019-05-11T04:27:24.420Z,83.07
2019-05-11T04:29:35.254Z,82.97
2019-05-11T04:31:46.225Z,83.17
2019-05-11T04:33:57.070Z,83.13
2019-05-11T04:36:08.003Z,82.30
2019-05-11T04:38:18.869Z,82.53
2019-05-11T04:40:30.088Z,82.44
2019-05-11T04:42:54.093Z,82.57
2019-05-11T04:44:53.662Z,82.55
2019-05-11T04:47:04.535Z,82.38
2019-05-11T04:49:15.377Z,81.86
2019-05-11T04:51:26.201Z,81.47
2019-05-11T04:53:37.074Z,81.39
2019-05-11T04:55:47.902Z,80.52
2019-05-11T04:57:58.748Z,80.29
2019-05-11T05:00:10.184Z,80.32
2019-05-11T05:02:21.847Z,80.43
2019-05-11T05:04:32.857Z,80.36
2019-05-11T05:06:47.760Z,80.11
2019-05-11T05:08:58.087Z,80.21
2019-05-11T05:11:09.359Z,80.03
2019-05-11T05:13:23.452Z,79.70
2019-05-11T05:15:33.029Z,79.90
2019-05-11T05:17:43.902Z,79.68
2019-05-11T05:19:54.766Z,79.62
2019-05-11T05:22:05.600Z,79.67
2019-05-11T05:24:16.473Z,79.83
2019-05-11T05:26:27.524Z,79.58
2019-05-11T05:28:38.411Z,79.83
2019-05-11T05:30:49.261Z,79.88
2019-05-11T05:33:00.122Z,79.92
2019-05-11T05:35:11.183Z,79.96
2019-05-11T05:37:22.014Z,79.81
2019-05-11T05:39:32.868Z,79.49
2019-05-11T05:41:56.187Z,79.70
2019-05-11T05:43:56.467Z,80.18
2019-05-11T05:46:07.304Z,79.62
2019-05-11T05:48:18.201Z,79.81
2019-05-11T05:50:29.146Z,79.90
2019-05-11T05:52:39.998Z,80.22
2019-05-11T05:54:50.851Z,80.04
2019-05-11T05:57:01.853Z,79.80
2019-05-11T05:59:12.746Z,79.83
2019-05-11T06:01:23.633Z,79.62
2019-05-11T06:03:34.459Z,79.81
2019-05-11T06:05:45.388Z,79.96
2019-05-11T06:07:56.267Z,79.98
2019-05-11T06:10:07.345Z,80.11
2019-05-11T06:12:18.295Z,80.47
2019-05-11T06:14:29.153Z,80.82
2019-05-11T06:16:39.993Z,80.94
2019-05-11T06:18:50.940Z,81.14
2019-05-11T06:21:01.814Z,82.18
2019-05-11T06:23:12.761Z,82.05
2019-05-11T06:25:23.722Z,83.10
2019-05-11T06:27:34.662Z,83.58
2019-05-11T06:29:45.583Z,83.93
2019-05-11T06:31:56.476Z,84.62
2019-05-11T06:34:07.318Z,84.55
2019-05-11T06:36:18.185Z,84.75
2019-05-11T06:38:29.024Z,84.80
2019-05-11T06:40:39.872Z,85.08
2019-05-11T06:42:50.831Z,85.28
2019-05-11T06:45:03.331Z,85.80
2019-05-11T06:47:14.160Z,86.11
2019-05-11T06:49:25.003Z,85.95
2019-05-11T06:51:39.807Z,86.09
2019-05-11T06:53:48.594Z,86.10
2019-05-11T06:55:59.552Z,86.19
2019-05-11T06:58:10.416Z,85.87
2019-05-11T07:00:21.472Z,85.46
2019-05-11T07:02:32.579Z,85.50
2019-05-11T07:04:43.481Z,81.32
2019-05-11T07:06:54.444Z,79.08
2019-05-11T07:09:06.398Z,76.99
2019-05-11T07:11:17.267Z,76.84
2019-05-11T07:13:28.124Z,76.55
2019-05-11T07:15:38.973Z,76.69
2019-05-11T07:17:49.867Z,76.93
2019-05-11T07:20:00.714Z,77.99
2019-05-11T07:22:11.595Z,77.48
2019-05-11T07:24:22.543Z,77.43
2019-05-11T07:26:33.499Z,77.53
2019-05-11T07:28:44.475Z,77.47
2019-05-11T07:30:55.339Z,78.92
2019-05-11T07:33:08.105Z,77.75
2019-05-11T07:35:18.975Z,77.23
2019-05-11T07:37:29.935Z,77.07
2019-05-11T07:39:41.030Z,76.26
2019-05-11T07:41:51.876Z,76.47
2019-05-11T07:44:02.825Z,76.58
2019-05-11T07:46:13.765Z,78.11
2019-05-11T07:48:24.750Z,78.70
2019-05-11T07:50:35.593Z,79.30
2019-05-11T07:52:48.296Z,78.34
2019-05-11T07:54:59.249Z,79.24
2019-05-11T07:57:10.158Z,79.16
2019-05-11T07:59:21.018Z,79.61
2019-05-11T08:01:31.862Z,74.88
2019-05-11T08:03:42.850Z,74.26
2019-05-11T08:05:53.967Z,72.44
2019-05-11T08:08:04.933Z,72.44
2019-05-11T08:10:18.396Z,69.69
2019-05-11T08:12:28.838Z,66.09
2019-05-11T08:14:56.631Z,64.03
2019-05-11T08:16:53.313Z,65.70
2019-05-11T08:19:07.072Z,65.99
2019-05-11T08:21:17.821Z,66.41
2019-05-11T08:23:29.006Z,66.21
2019-05-11T08:25:39.872Z,67.26
2019-05-11T08:27:50.730Z,66.61
2019-05-11T08:30:01.843Z,68.50
2019-05-11T08:32:12.782Z,61.53
2019-05-11T08:34:23.748Z,61.24
2019-05-11T08:36:34.698Z,60.76
2019-05-11T08:38:48.098Z,62.77
2019-05-11T08:40:59.157Z,63.04
2019-05-11T08:43:10.303Z,63.52
2019-05-11T08:45:24.751Z,65.37
2019-05-11T08:47:34.046Z,64.09
2019-05-11T08:49:45.050Z,61.70
2019-05-11T08:51:57.828Z,60.28
2019-05-11T08:54:09.195Z,60.99
2019-05-11T08:56:20.145Z,60.91
2019-05-11T08:58:30.978Z,60.95
2019-05-11T09:00:41.971Z,60.28
2019-05-11T09:02:52.913Z,57.67
2019-05-11T09:05:05.165Z,59.44
2019-05-11T09:07:18.263Z,57.22
2019-05-11T09:09:28.972Z,57.38
2019-05-11T09:11:39.914Z,56.89
2019-05-11T09:13:50.783Z,55.15
2019-05-11T09:16:01.634Z,55.56
2019-05-11T09:18:12.482Z,54.68
2019-05-11T09:20:23.346Z,54.80
2019-05-11T09:22:34.313Z,55.06
2019-05-11T09:24:47.605Z,53.97
2019-05-11T09:26:58.693Z,55.49
2019-05-11T09:29:09.664Z,53.43
2019-05-11T09:31:20.544Z,54.92
2019-05-11T09:33:31.679Z,58.18
2019-05-11T09:35:50.089Z,57.04
2019-05-11T09:37:55.338Z,58.12
2019-05-11T09:40:07.863Z,56.33
2019-05-11T09:42:18.884Z,55.72
2019-05-11T09:44:29.748Z,56.55
2019-05-11T09:46:40.719Z,54.04
2019-05-11T09:48:51.815Z,54.53
2019-05-11T09:51:02.773Z,49.66
2019-05-11T09:53:13.632Z,54.00
2019-05-11T09:55:24.474Z,47.20
2019-05-11T09:57:35.343Z,47.53
2019-05-11T09:59:47.767Z,47.47
2019-05-11T10:01:59.120Z,48.57
2019-05-11T10:04:10.220Z,46.18
2019-05-11T10:06:21.571Z,42.06
2019-05-11T10:08:32.549Z,42.85
2019-05-11T10:10:43.739Z,41.66
2019-05-11T10:12:54.614Z,42.88
2019-05-11T10:15:08.393Z,40.59
2019-05-11T10:17:19.639Z,42.21
2019-05-11T10:19:30.624Z,43.99
2019-05-11T10:21:41.479Z,42.74
2019-05-11T10:23:52.372Z,41.26
2019-05-11T10:26:03.248Z,42.46
2019-05-11T10:28:17.895Z,40.87
2019-05-11T10:30:28.800Z,41.09
2019-05-11T10:32:40.551Z,44.52
2019-05-11T10:34:51.456Z,41.88
2019-05-11T10:37:02.400Z,40.78
2019-05-11T10:39:13.301Z,43.14
2019-05-11T10:41:24.151Z,42.77
2019-05-11T10:43:35.024Z,42.35
2019-05-11T10:45:48.186Z,42.38
2019-05-11T10:48:01.123Z,42.68
2019-05-11T10:50:12.073Z,42.85
2019-05-11T10:52:22.923Z,43.33
2019-05-11T10:54:34.004Z,43.96
2019-05-11T10:56:44.883Z,44.83
2019-05-11T10:58:58.734Z,43.21
2019-05-11T11:01:09.665Z,43.21
2019-05-11T11:03:20.555Z,43.95
2019-05-11T11:05:31.528Z,42.83
2019-05-11T11:07:42.371Z,43.79
2019-05-11T11:09:53.259Z,43.63
2019-05-11T11:12:04.272Z,40.36
2019-05-11T11:14:15.113Z,41.43
2019-05-11T11:16:36.839Z,41.96
2019-05-11T11:18:38.762Z,41.32
2019-05-11T11:20:49.725Z,44.00
2019-05-11T11:23:00.579Z,42.21
2019-05-11T11:25:11.829Z,40.90
2019-05-11T11:27:22.697Z,41.49
2019-05-11T11:29:33.560Z,40.14
2019-05-11T11:31:44.429Z,40.42
2019-05-11T11:33:58.258Z,41.61
2019-05-11T11:36:08.629Z,42.53
2019-05-11T11:38:19.512Z,41.08
2019-05-11T11:40:31.309Z,40.90
2019-05-11T11:42:42.167Z,41.43
2019-05-11T11:44:53.006Z,40.26
2019-05-11T11:47:03.880Z,42.21
2019-05-11T11:49:18.799Z,40.53
2019-05-11T11:51:29.639Z,40.05
2019-05-11T11:53:40.603Z,40.07
2019-05-11T11:55:51.561Z,40.97
2019-05-11T11:58:02.565Z,40.69
2019-05-11T12:00:13.706Z,41.82
2019-05-11T12:02:24.580Z,41.50
2019-05-11T12:04:35.426Z,43.25
2019-05-11T12:06:46.281Z,43.00
2019-05-11T12:08:58.506Z,41.42
2019-05-11T12:11:09.614Z,40.75
2019-05-11T12:13:20.538Z,42.12
2019-05-11T12:15:31.636Z,44.41
2019-05-11T12:17:42.516Z,45.57
2019-05-11T12:19:53.370Z,44.06
2019-05-11T12:22:04.447Z,44.80
2019-05-11T12:24:15.587Z,45.32
2019-05-11T12:26:28.208Z,46.92
2019-05-11T12:28:39.223Z,45.56
2019-05-11T12:30:50.213Z,44.88
2019-05-11T12:33:01.445Z,45.83
2019-05-11T12:35:12.540Z,45.43
2019-05-11T12:37:23.561Z,45.99
2019-05-11T12:39:34.467Z,45.52
2019-05-11T12:41:45.342Z,43.07
2019-05-11T12:43:57.774Z,43.87
2019-05-11T12:46:08.874Z,45.89
2019-05-11T12:48:19.954Z,45.76
2019-05-11T12:50:30.842Z,46.25
2019-05-11T12:52:41.787Z,44.47
2019-05-11T12:54:52.648Z,45.36
2019-05-11T12:57:03.702Z,43.44
2019-05-11T12:59:14.685Z,41.85
2019-05-11T13:01:25.629Z,40.97
2019-05-11T13:03:38.606Z,41.47
2019-05-11T13:05:49.325Z,41.91
2019-05-11T13:08:00.172Z,41.51
2019-05-11T13:10:12.158Z,39.23
2019-05-11T13:12:23.112Z,41.04
2019-05-11T13:14:33.991Z,40.35
2019-05-11T13:16:44.841Z,40.79
2019-05-11T13:18:57.547Z,40.43
2019-05-11T13:21:08.537Z,38.46
2019-05-11T13:23:19.486Z,39.59
2019-05-11T13:25:30.373Z,39.94
2019-05-11T13:27:41.212Z,39.57
2019-05-11T13:29:52.069Z,40.39
2019-05-11T13:32:02.934Z,37.64
2019-05-11T13:34:13.772Z,39.73
2019-05-11T13:36:24.771Z,39.81
2019-05-11T13:38:35.733Z,39.03
2019-05-11T13:40:48.806Z,42.11
2019-05-11T13:42:59.444Z,42.82
2019-05-11T13:45:10.925Z,44.13
2019-05-11T13:47:21.809Z,46.27
2019-05-11T13:49:32.820Z,53.28
2019-05-11T13:51:43.731Z,60.28
2019-05-11T13:53:54.826Z,61.00
2019-05-11T13:56:07.775Z,62.15
2019-05-11T13:58:19.861Z,61.40
2019-05-11T14:00:31.044Z,62.85
2019-05-11T14:02:42.018Z,63.00
2019-05-11T14:04:53.059Z,62.84
2019-05-11T14:07:04.034Z,60.97
2019-05-11T14:09:15.006Z,58.05
2019-05-11T14:11:28.485Z,59.01
2019-05-11T14:13:39.137Z,60.20
2019-05-11T14:15:50.042Z,61.84
2019-05-11T14:18:07.760Z,61.04
2019-05-11T14:20:13.927Z,63.73
2019-05-11T14:22:24.881Z,63.14
2019-05-11T14:24:37.632Z,64.05
2019-05-11T14:26:48.983Z,62.87
2019-05-11T14:28:59.883Z,61.02
2019-05-11T14:31:10.821Z,59.09
2019-05-11T14:33:21.720Z,59.97
2019-05-11T14:35:32.670Z,60.58
2019-05-11T14:37:43.561Z,58.66
2019-05-11T14:39:54.393Z,57.09
2019-05-11T14:42:07.545Z,56.84
2019-05-11T14:44:18.351Z,55.11
2019-05-11T14:46:29.334Z,56.78
2019-05-11T14:48:40.268Z,56.28
2019-05-11T14:50:51.216Z,58.72
2019-05-11T14:53:02.212Z,60.21
2019-05-11T14:55:13.262Z,61.75
2019-05-11T14:57:24.110Z,64.50
2019-05-11T14:59:35.070Z,66.14
2019-05-11T15:01:48.784Z,70.27
2019-05-11T15:03:58.936Z,71.16
2019-05-11T15:06:09.751Z,73.25
2019-05-11T15:08:20.749Z,75.02
2019-05-11T15:10:31.711Z,75.03
2019-05-11T15:12:42.683Z,74.79
2019-05-11T15:14:53.677Z,75.90
2019-05-11T15:17:04.523Z,76.66
2019-05-11T15:19:15.396Z,76.15
2019-05-11T15:21:28.086Z,76.06
2019-05-11T15:23:38.999Z,76.36
2019-05-11T15:25:49.990Z,77.34
2019-05-11T15:28:00.930Z,76.21
2019-05-11T15:30:13.701Z,76.12
2019-05-11T15:32:24.565Z,76.99
2019-05-11T15:34:35.426Z,78.21
2019-05-11T15:36:48.808Z,77.08
2019-05-11T15:38:59.156Z,76.61
2019-05-11T15:41:10.125Z,76.73
2019-05-11T15:43:20.977Z,76.95
2019-05-11T15:45:32.093Z,78.29
2019-05-11T15:47:43.146Z,79.48
2019-05-11T15:49:54.022Z,79.89
2019-05-11T15:52:04.976Z,78.16
2019-05-11T15:54:18.347Z,79.83
2019-05-11T15:56:28.849Z,79.62
2019-05-11T15:58:39.791Z,78.99
2019-05-11T16:00:50.661Z,79.02
2019-05-11T16:03:01.494Z,78.68
2019-05-11T16:05:12.523Z,79.00
2019-05-11T16:07:23.395Z,79.00
2019-05-11T16:09:34.340Z,78.80
2019-05-11T16:11:47.738Z,78.51
2019-05-11T16:13:58.624Z,79.39
2019-05-11T16:16:09.688Z,79.37
2019-05-11T16:18:20.567Z,79.65
2019-05-11T16:20:31.576Z,79.33
2019-05-11T16:22:42.467Z,80.24
2019-05-11T16:24:53.339Z,80.09
2019-05-11T16:27:04.321Z,80.51
2019-05-11T16:29:15.183Z,80.46
2019-05-11T16:31:28.296Z,80.43
2019-05-11T16:33:38.861Z,79.87
2019-05-11T16:35:49.808Z,79.72
2019-05-11T16:38:00.761Z,80.17
2019-05-11T16:40:11.849Z,80.00
2019-05-11T16:42:22.803Z,79.85
2019-05-11T16:44:33.651Z,79.71
2019-05-11T16:46:44.534Z,80.01
2019-05-11T16:48:57.763Z,80.84
2019-05-11T16:51:08.769Z,83.16
2019-05-11T16:53:19.813Z,82.90
2019-05-11T16:55:30.853Z,81.62
2019-05-11T16:57:41.944Z,81.36
2019-05-11T16:59:52.900Z,80.07
2019-05-11T17:02:03.853Z,78.73
2019-05-11T17:04:14.719Z,78.28
2019-05-11T17:06:25.580Z,78.48
2019-05-11T17:08:38.408Z,80.50
2019-05-11T17:10:59.163Z,80.33
2019-05-11T17:13:10.546Z,80.76
2019-05-11T17:15:21.403Z,81.14
2019-05-11T17:17:32.273Z,82.18
2019-05-11T17:19:46.297Z,81.91
2019-05-11T17:21:56.098Z,82.81
2019-05-11T17:24:07.155Z,82.46
2019-05-11T17:26:19.041Z,82.75
2019-05-11T17:28:30.152Z,83.55
2019-05-11T17:30:41.124Z,83.45
2019-05-11T17:32:52.030Z,83.78
2019-05-11T17:35:04.127Z,83.68
2019-05-11T17:37:15.100Z,84.17
2019-05-11T17:39:27.744Z,84.63
2019-05-11T17:41:38.982Z,84.24
2019-05-11T17:43:49.948Z,84.15
2019-05-11T17:46:00.799Z,83.48
2019-05-11T17:48:13.678Z,83.60
2019-05-11T17:50:24.655Z,84.36
2019-05-11T17:52:35.511Z,84.06
2019-05-11T17:54:47.789Z,84.30
2019-05-11T17:56:58.747Z,84.42
2019-05-11T17:59:09.599Z,83.83
2019-05-11T18:01:20.441Z,84.29
2019-05-11T18:03:31.294Z,83.71
2019-05-11T18:05:42.280Z,83.97
2019-05-11T18:07:53.234Z,83.65
2019-05-11T18:10:04.489Z,83.28
2019-05-11T18:12:17.212Z,84.13
2019-05-11T18:14:28.321Z,83.73
2019-05-11T18:16:39.132Z,84.40
2019-05-11T18:18:50.009Z,83.78
2019-05-11T18:21:01.009Z,83.52
2019-05-11T18:23:11.970Z,84.53
2019-05-11T18:25:22.968Z,84.78
2019-05-11T18:27:33.841Z,84.80
2019-05-11T18:29:44.773Z,84.50
2019-05-11T18:31:57.827Z,84.11
2019-05-11T18:34:09.076Z,84.49
2019-05-11T18:36:20.132Z,84.77
2019-05-11T18:38:30.973Z,84.77
2019-05-11T18:40:41.838Z,84.77
2019-05-11T18:42:52.806Z,85.40
2019-05-11T18:45:04.464Z,85.52
2019-05-11T18:47:15.340Z,85.47
2019-05-11T18:49:28.447Z,85.75
2019-05-11T18:51:39.089Z,85.45
2019-05-11T18:53:50.159Z,85.80
2019-05-11T18:56:01.150Z,84.98
2019-05-11T18:58:12.188Z,84.85
2019-05-11T19:00:23.061Z,84.74
2019-05-11T19:02:34.048Z,85.10
2019-05-11T19:04:44.903Z,85.44
2019-05-11T19:06:55.806Z,85.76
2019-05-11T19:09:07.255Z,85.39
2019-05-11T19:11:18.437Z,85.59
2019-05-11T19:13:29.419Z,85.67
2019-05-11T19:15:41.390Z,85.51
2019-05-11T19:17:52.393Z,86.02
2019-05-11T19:20:05.565Z,86.36
2019-05-11T19:22:18.337Z,86.27
2019-05-11T19:24:29.225Z,86.29
2019-05-11T19:26:40.207Z,86.33
2019-05-11T19:28:53.585Z,86.18
2019-05-11T19:31:04.558Z,86.63
2019-05-11T19:33:15.528Z,86.54
2019-05-11T19:35:28.648Z,86.59
2019-05-11T19:37:39.352Z,87.19
2019-05-11T19:39:50.852Z,87.11
2019-05-11T19:42:01.796Z,87.25
2019-05-11T19:44:12.667Z,87.32
2019-05-11T19:46:23.540Z,87.22
2019-05-11T19:48:34.534Z,86.93
2019-05-11T19:50:59.922Z,86.94
2019-05-11T19:52:58.262Z,86.80
2019-05-11T19:55:09.348Z,86.87
2019-05-11T19:57:20.307Z,87.02
2019-05-11T19:59:31.290Z,87.18
2019-05-11T20:01:42.286Z,87.39
2019-05-11T20:03:53.202Z,87.76
2019-05-11T20:06:04.282Z,87.51
2019-05-11T20:08:15.243Z,87.62
2019-05-11T20:10:27.716Z,87.10
2019-05-11T20:12:41.386Z,87.32
2019-05-11T20:14:51.538Z,88.05
2019-05-11T20:17:02.514Z,87.96
2019-05-11T20:19:14.155Z,88.41
2019-05-11T20:21:25.152Z,88.36
2019-05-11T20:23:37.841Z,87.98
2019-05-11T20:25:48.876Z,87.71
2019-05-11T20:27:59.721Z,87.81
2019-05-11T20:30:10.705Z,87.64
2019-05-11T20:32:21.576Z,87.35
2019-05-11T20:34:32.544Z,87.02
2019-05-11T20:36:43.505Z,87.18
2019-05-11T20:38:54.383Z,87.31
2019-05-11T20:41:05.260Z,87.54
2019-05-11T20:43:18.394Z,87.06
2019-05-11T20:45:29.083Z,86.91
2019-05-11T20:47:40.063Z,86.85
2019-05-11T20:49:51.063Z,86.70
2019-05-11T20:52:01.929Z,86.61
2019-05-11T20:54:12.798Z,86.29
2019-05-11T20:56:23.676Z,86.75
2019-05-11T20:58:53.339Z,86.46
2019-05-11T21:01:04.276Z,86.16
2019-05-11T21:03:15.255Z,86.43
2019-05-11T21:05:26.208Z,86.69
2019-05-11T21:07:38.953Z,86.86
2019-05-11T21:09:49.963Z,87.02
2019-05-11T21:12:02.998Z,86.81
2019-05-11T21:14:13.723Z,86.86
2019-05-11T21:16:24.718Z,86.90
2019-05-11T21:18:38.011Z,87.18
2019-05-11T21:20:48.517Z,86.77
2019-05-11T21:22:59.477Z,86.63
2019-05-11T21:25:10.633Z,86.93
2019-05-11T21:27:21.522Z,87.08
2019-05-11T21:29:32.426Z,87.51
2019-05-11T21:31:43.293Z,87.05
2019-05-11T21:33:54.186Z,87.21
2019-05-11T21:36:05.237Z,87.23
2019-05-11T21:38:17.724Z,86.90
2019-05-11T21:40:31.264Z,86.19
2019-05-11T21:42:41.554Z,86.70
2019-05-11T21:44:54.307Z,87.04
2019-05-11T21:47:05.177Z,86.89
2019-05-11T21:49:18.289Z,87.24
2019-05-11T21:51:28.907Z,87.36
2019-05-11T21:53:39.770Z,87.02
2019-05-11T21:55:50.606Z,87.14
2019-05-11T21:58:01.584Z,87.06
2019-05-11T22:00:12.874Z,87.30
2019-05-11T22:02:24.060Z,87.06
2019-05-11T22:04:35.038Z,87.31
2019-05-11T22:06:48.232Z,86.98
2019-05-11T22:08:59.076Z,87.00
2019-05-11T22:11:09.957Z,87.26
2019-05-11T22:13:20.837Z,87.19
2019-05-11T22:15:31.685Z,86.55
2019-05-11T22:17:42.544Z,87.10
2019-05-11T22:19:53.486Z,86.96
2019-05-11T22:22:18.154Z,86.54
2019-05-11T22:24:17.986Z,86.48
2019-05-11T22:26:28.982Z,86.15
2019-05-11T22:28:39.864Z,85.94
2019-05-11T22:30:50.687Z,85.68
2019-05-11T22:33:01.763Z,86.14
2019-05-11T22:37:43.334Z,85.16
2019-05-11T22:39:54.343Z,85.47
2019-05-11T22:42:05.142Z,85.57
2019-05-11T22:44:18.146Z,85.33
2019-05-11T22:46:28.779Z,85.33
2019-05-11T22:48:39.627Z,85.53
2019-05-11T22:50:50.795Z,85.80
2019-05-11T22:53:01.753Z,85.93
2019-05-11T22:55:12.743Z,85.64
2019-05-11T22:57:23.594Z,85.97
2019-05-11T22:59:34.493Z,85.77
2019-05-11T23:01:45.322Z,85.87
2019-05-11T23:03:58.408Z,85.47
2019-05-11T23:06:08.948Z,84.87
2019-05-11T23:08:19.862Z,85.23
2019-05-11T23:10:30.729Z,85.75
2019-05-11T23:12:41.598Z,85.69
2019-05-11T23:15:09.446Z,85.72
2019-05-11T23:17:20.305Z,85.67
2019-05-11T23:19:31.146Z,85.59
2019-05-11T23:21:42.052Z,85.66
2019-05-11T23:23:53.004Z,85.66
2019-05-11T23:26:03.962Z,85.58
2019-05-11T23:28:15.040Z,86.03
2019-05-11T23:30:28.075Z,86.26
2019-05-11T23:32:38.936Z,85.67
2019-05-11T23:34:49.756Z,85.78
2019-05-11T23:37:00.637Z,86.13
2019-05-11T23:39:11.490Z,86.51
2019-05-11T23:41:24.990Z,86.59
2019-05-11T23:43:37.907Z,86.56
2019-05-11T23:45:48.767Z,86.53
2019-05-11T23:47:59.628Z,86.78
2019-05-11T23:50:11.622Z,86.50
2019-05-11T23:52:22.505Z,86.66
2019-05-11T23:54:33.337Z,86.55
2019-05-11T23:56:44.285Z,86.31
2019-05-11T23:58:57.732Z,86.68
